sensor_id;sensor_type;location;lat;lon;timestamp;pressure;altitude;pressure_sealevel;temperature;humidity
69784;BME280;57054;51.978;4.498;2023-11-21T00:00:21;101103.78;;;6.39;100.00
69784;BME280;57054;51.978;4.498;2023-11-21T00:02:46;101094.25;;;6.38;100.00
69784;BME280;57054;51.978;4.498;2023-11-21T00:05:13;101096.84;;;6.39;100.00
69784;BME280;57054;51.978;4.498;2023-11-21T00:07:42;101098.53;;;6.40;100.00
69784;BME280;57054;51.978;4.498;2023-11-21T00:10:08;101097.66;;;6.41;100.00
69784;BME280;57054;51.978;4.498;2023-11-21T00:12:35;101105.44;;;6.43;100.00
69784;BME280;57054;51.978;4.498;2023-11-21T00:15:00;101102.78;;;6.46;100.00
69784;BME280;57054;51.978;4.498;2023-11-21T00:17:26;101107.06;;;6.48;100.00
69784;BME280;57054;51.978;4.498;2023-11-21T00:19:52;101106.13;;;6.52;100.00
69784;BME280;57054;51.978;4.498;2023-11-21T00:22:18;101099.94;;;6.58;100.00
69784;BME280;57054;51.978;4.498;2023-11-21T00:24:43;101105.03;;;6.64;100.00
69784;BME280;57054;51.978;4.498;2023-11-21T00:27:09;101098.03;;;6.66;100.00
69784;BME280;57054;51.978;4.498;2023-11-21T00:29:34;101102.25;;;6.72;100.00
69784;BME280;57054;51.978;4.498;2023-11-21T00:31:59;101110.03;;;6.73;100.00
69784;BME280;57054;51.978;4.498;2023-11-21T00:34:25;101107.34;;;6.77;100.00
69784;BME280;57054;51.978;4.498;2023-11-21T00:36:50;101102.03;;;6.83;100.00
69784;BME280;57054;51.978;4.498;2023-11-21T00:39:15;101107.13;;;6.87;100.00
69784;BME280;57054;51.978;4.498;2023-11-21T00:41:41;101101.88;;;6.90;100.00
69784;BME280;57054;51.978;4.498;2023-11-21T00:44:07;101108.72;;;6.95;100.00
69784;BME280;57054;51.978;4.498;2023-11-21T00:46:32;101114.75;;;6.97;100.00
69784;BME280;57054;51.978;4.498;2023-11-21T00:49:00;101107.72;;;7.00;100.00
69784;BME280;57054;51.978;4.498;2023-11-21T00:51:25;101111.19;;;7.02;100.00
69784;BME280;57054;51.978;4.498;2023-11-21T00:53:51;101116.31;;;7.05;100.00
69784;BME280;57054;51.978;4.498;2023-11-21T00:56:16;101118.81;;;7.10;100.00
69784;BME280;57054;51.978;4.498;2023-11-21T00:58:41;101117.06;;;7.10;100.00
69784;BME280;57054;51.978;4.498;2023-11-21T01:01:14;101114.44;;;7.12;100.00
69784;BME280;57054;51.978;4.498;2023-11-21T01:03:40;101117.88;;;7.14;100.00
69784;BME280;57054;51.978;4.498;2023-11-21T01:06:06;101128.25;;;7.16;100.00
69784;BME280;57054;51.978;4.498;2023-11-21T01:08:33;101126.47;;;7.18;100.00
69784;BME280;57054;51.978;4.498;2023-11-21T01:10:58;101122.94;;;7.20;100.00
69784;BME280;57054;51.978;4.498;2023-11-21T01:13:24;101128.06;;;7.23;100.00
69784;BME280;57054;51.978;4.498;2023-11-21T01:15:53;101129.81;;;7.24;100.00
69784;BME280;57054;51.978;4.498;2023-11-21T01:18:18;101122.84;;;7.25;100.00
69784;BME280;57054;51.978;4.498;2023-11-21T01:20:44;101136.69;;;7.27;100.00
69784;BME280;57054;51.978;4.498;2023-11-21T01:23:12;101140.19;;;7.26;100.00
69784;BME280;57054;51.978;4.498;2023-11-21T01:25:38;101140.19;;;7.26;100.00
69784;BME280;57054;51.978;4.498;2023-11-21T01:28:03;101138.44;;;7.26;100.00
69784;BME280;57054;51.978;4.498;2023-11-21T01:30:28;101154.00;;;7.29;100.00
69784;BME280;57054;51.978;4.498;2023-11-21T01:32:54;101151.41;;;7.29;100.00
69784;BME280;57054;51.978;4.498;2023-11-21T01:35:19;101147.91;;;7.30;100.00
69784;BME280;57054;51.978;4.498;2023-11-21T01:37:44;101155.69;;;7.32;100.00
69784;BME280;57054;51.978;4.498;2023-11-21T01:40:10;101165.22;;;7.33;100.00
69784;BME280;57054;51.978;4.498;2023-11-21T01:42:38;101166.91;;;7.34;100.00
69784;BME280;57054;51.978;4.498;2023-11-21T01:45:04;101165.13;;;7.36;100.00
69784;BME280;57054;51.978;4.498;2023-11-21T01:47:31;101172.03;;;7.39;100.00
69784;BME280;57054;51.978;4.498;2023-11-21T01:49:57;101170.25;;;7.41;100.00
69784;BME280;57054;51.978;4.498;2023-11-21T01:52:23;101174.50;;;7.45;100.00
69784;BME280;57054;51.978;4.498;2023-11-21T01:54:49;101182.25;;;7.48;100.00
69784;BME280;57054;51.978;4.498;2023-11-21T01:57:15;101180.44;;;7.52;100.00
69784;BME280;57054;51.978;4.498;2023-11-21T01:59:42;101187.34;;;7.53;100.00
69784;BME280;57054;51.978;4.498;2023-11-21T02:05:29;101192.53;;;7.54;100.00
69784;BME280;57054;51.978;4.498;2023-11-21T02:07:55;101188.16;;;7.55;100.00
69784;BME280;57054;51.978;4.498;2023-11-21T02:10:21;101188.16;;;7.55;100.00
69784;BME280;57054;51.978;4.498;2023-11-21T02:12:51;101184.72;;;7.54;100.00
69784;BME280;57054;51.978;4.498;2023-11-21T02:15:17;101181.25;;;7.54;100.00
69784;BME280;57054;51.978;4.498;2023-11-21T02:17:49;101189.09;;;7.54;100.00
69784;BME280;57054;51.978;4.498;2023-11-21T02:20:20;101188.16;;;7.55;100.00
69784;BME280;57054;51.978;4.498;2023-11-21T02:22:50;101185.56;;;7.55;100.00
69784;BME280;57054;51.978;4.498;2023-11-21T02:25:18;101189.94;;;7.54;100.00
69784;BME280;57054;51.978;4.498;2023-11-21T02:27:43;101196.00;;;7.55;100.00
69784;BME280;57054;51.978;4.498;2023-11-21T02:30:14;101189.09;;;7.54;100.00
69784;BME280;57054;51.978;4.498;2023-11-21T02:32:39;101193.38;;;7.55;100.00
69784;BME280;57054;51.978;4.498;2023-11-21T02:35:08;101191.69;;;7.54;100.00
69784;BME280;57054;51.978;4.498;2023-11-21T02:37:33;101192.53;;;7.54;100.00
69784;BME280;57054;51.978;4.498;2023-11-21T02:40:00;101196.00;;;7.55;100.00
69784;BME280;57054;51.978;4.498;2023-11-21T02:42:27;101195.97;;;7.56;100.00
69784;BME280;57054;51.978;4.498;2023-11-21T02:44:53;101195.13;;;7.56;100.00
69784;BME280;57054;51.978;4.498;2023-11-21T02:47:18;101203.75;;;7.58;100.00
69784;BME280;57054;51.978;4.498;2023-11-21T02:49:43;101205.50;;;7.57;100.00
69784;BME280;57054;51.978;4.498;2023-11-21T02:52:09;101199.34;;;7.61;100.00
69784;BME280;57054;51.978;4.498;2023-11-21T02:54:34;101208.88;;;7.62;100.00
69784;BME280;57054;51.978;4.498;2023-11-21T02:57:02;101210.50;;;7.66;100.00
69784;BME280;57054;51.978;4.498;2023-11-21T02:59:27;101205.28;;;7.68;100.00
69784;BME280;57054;51.978;4.498;2023-11-21T03:01:53;101207.84;;;7.69;100.00
69784;BME280;57054;51.978;4.498;2023-11-21T03:04:18;101206.91;;;7.72;100.00
69784;BME280;57054;51.978;4.498;2023-11-21T03:06:44;101211.25;;;7.73;100.00
69784;BME280;57054;51.978;4.498;2023-11-21T03:09:10;101211.19;;;7.75;100.00
69784;BME280;57054;51.978;4.498;2023-11-21T03:11:37;101212.88;;;7.77;100.00
69784;BME280;57054;51.978;4.498;2023-11-21T03:14:03;101214.56;;;7.78;100.00
69784;BME280;57054;51.978;4.498;2023-11-21T03:16:28;101216.31;;;7.79;100.00
69784;BME280;57054;51.978;4.498;2023-11-21T03:18:54;101217.16;;;7.80;100.00
69784;BME280;57054;51.978;4.498;2023-11-21T03:21:19;101211.06;;;7.81;100.00
69784;BME280;57054;51.978;4.498;2023-11-21T03:23:45;101215.34;;;7.83;100.00
69784;BME280;57054;51.978;4.498;2023-11-21T03:26:13;101215.31;;;7.85;100.00
69784;BME280;57054;51.978;4.498;2023-11-21T03:28:39;101219.63;;;7.86;100.00
69784;BME280;57054;51.978;4.498;2023-11-21T03:31:04;101218.69;;;7.88;100.00
69784;BME280;57054;51.978;4.498;2023-11-21T03:33:31;101230.84;;;7.90;100.00
69784;BME280;57054;51.978;4.498;2023-11-21T03:35:57;101232.59;;;7.89;100.00
69784;BME280;57054;51.978;4.498;2023-11-21T03:38:23;101235.16;;;7.91;100.00
69784;BME280;57054;51.978;4.498;2023-11-21T03:40:48;101241.19;;;7.93;100.00
69784;BME280;57054;51.978;4.498;2023-11-21T03:43:14;101242.94;;;7.94;100.00
69784;BME280;57054;51.978;4.498;2023-11-21T03:45:39;101242.00;;;7.95;100.00
69784;BME280;57054;51.978;4.498;2023-11-21T03:48:06;101252.38;;;7.98;100.00
69784;BME280;57054;51.978;4.498;2023-11-21T03:50:31;101253.19;;;8.00;100.00
69784;BME280;57054;51.978;4.498;2023-11-21T03:52:57;101249.72;;;8.01;100.00
69784;BME280;57054;51.978;4.498;2023-11-21T03:55:22;101260.16;;;8.01;100.00
69784;BME280;57054;51.978;4.498;2023-11-21T03:57:50;101264.44;;;8.03;100.00
69784;BME280;57054;51.978;4.498;2023-11-21T04:00:16;101264.34;;;8.06;100.00
69784;BME280;57054;51.978;4.498;2023-11-21T04:02:42;101254.78;;;8.07;100.00
69784;BME280;57054;51.978;4.498;2023-11-21T04:05:08;101264.31;;;8.10;100.00
69784;BME280;57054;51.978;4.498;2023-11-21T04:07:34;101261.63;;;8.11;100.00
69784;BME280;57054;51.978;4.498;2023-11-21T04:10:00;101272.06;;;8.11;100.00
69784;BME280;57054;51.978;4.498;2023-11-21T04:12:25;101270.34;;;8.12;100.00
69784;BME280;57054;51.978;4.498;2023-11-21T04:14:50;101265.97;;;8.12;100.00
69784;BME280;57054;51.978;4.498;2023-11-21T04:17:18;101272.84;;;8.15;100.00
69784;BME280;57054;51.978;4.498;2023-11-21T04:19:45;101269.34;;;8.16;100.00
69784;BME280;57054;51.978;4.498;2023-11-21T04:22:11;101281.47;;;8.18;100.00
69784;BME280;57054;51.978;4.498;2023-11-21T04:24:36;101291.88;;;8.20;100.00
69784;BME280;57054;51.978;4.498;2023-11-21T04:27:02;101284.88;;;8.20;100.00
69784;BME280;57054;51.978;4.498;2023-11-21T04:29:28;101291.88;;;8.20;100.00
69784;BME280;57054;51.978;4.498;2023-11-21T04:31:54;101292.72;;;8.20;100.00
69784;BME280;57054;51.978;4.498;2023-11-21T04:34:19;101294.44;;;8.21;100.00
69784;BME280;57054;51.978;4.498;2023-11-21T04:36:44;101297.03;;;8.23;100.00
69784;BME280;57054;51.978;4.498;2023-11-21T04:39:10;101297.88;;;8.23;100.00
69784;BME280;57054;51.978;4.498;2023-11-21T04:41:36;101303.91;;;8.25;100.00
69784;BME280;57054;51.978;4.498;2023-11-21T04:44:05;101306.47;;;8.27;100.00
69784;BME280;57054;51.978;4.498;2023-11-21T04:46:30;101303.03;;;8.26;100.00
69784;BME280;57054;51.978;4.498;2023-11-21T04:48:56;101318.63;;;8.30;100.00
69784;BME280;57054;51.978;4.498;2023-11-21T04:51:21;101313.34;;;8.31;100.00
69784;BME280;57054;51.978;4.498;2023-11-21T04:53:47;101326.31;;;8.34;100.00
69784;BME280;57054;51.978;4.498;2023-11-21T04:56:12;101324.53;;;8.36;100.00
69784;BME280;57054;51.978;4.498;2023-11-21T04:58:38;101321.00;;;8.39;100.00
69784;BME280;57054;51.978;4.498;2023-11-21T05:01:05;101336.63;;;8.40;100.00
69784;BME280;57054;51.978;4.498;2023-11-21T05:03:31;101336.59;;;8.42;100.00
69784;BME280;57054;51.978;4.498;2023-11-21T05:05:57;101339.19;;;8.43;100.00
69784;BME280;57054;51.978;4.498;2023-11-21T05:08:22;101342.66;;;8.44;100.00
69784;BME280;57054;51.978;4.498;2023-11-21T05:10:48;101336.56;;;8.43;100.00
69784;BME280;57054;51.978;4.498;2023-11-21T05:13:14;101345.22;;;8.45;100.00
69784;BME280;57054;51.978;4.498;2023-11-21T05:15:42;101349.59;;;8.45;100.00
69784;BME280;57054;51.978;4.498;2023-11-21T05:18:07;101348.72;;;8.46;100.00
69784;BME280;57054;51.978;4.498;2023-11-21T05:20:32;101359.16;;;8.46;100.00
69784;BME280;57054;51.978;4.498;2023-11-21T05:22:58;101356.56;;;8.46;100.00
69784;BME280;57054;51.978;4.498;2023-11-21T05:25:24;101360.84;;;8.47;100.00
69784;BME280;57054;51.978;4.498;2023-11-21T05:27:49;101362.63;;;8.47;100.00
69784;BME280;57054;51.978;4.498;2023-11-21T05:30:14;101364.44;;;8.43;100.00
69784;BME280;57054;51.978;4.498;2023-11-21T05:32:40;101361.84;;;8.40;100.00
69784;BME280;57054;51.978;4.498;2023-11-21T05:35:09;101372.31;;;8.40;100.00
69784;BME280;57054;51.978;4.498;2023-11-21T05:37:40;101371.41;;;8.41;100.00
69784;BME280;57054;51.978;4.498;2023-11-21T05:40:06;101377.50;;;8.41;100.00
69784;BME280;57054;51.978;4.498;2023-11-21T05:42:33;101379.25;;;8.41;100.00
69784;BME280;57054;51.978;4.498;2023-11-21T05:44:58;101384.50;;;8.39;100.00
69784;BME280;57054;51.978;4.498;2023-11-21T05:47:24;101386.25;;;8.39;100.00
69784;BME280;57054;51.978;4.498;2023-11-21T05:49:51;101381.88;;;8.39;100.00
69784;BME280;57054;51.978;4.498;2023-11-21T05:52:17;101385.38;;;8.38;100.00
69784;BME280;57054;51.978;4.498;2023-11-21T05:54:43;101388.88;;;8.39;100.00
69784;BME280;57054;51.978;4.498;2023-11-21T05:57:08;101400.13;;;8.41;100.00
69784;BME280;57054;51.978;4.498;2023-11-21T05:59:34;101400.16;;;8.39;100.00
69784;BME280;57054;51.978;4.498;2023-11-21T06:01:59;101402.81;;;8.38;100.00
69784;BME280;57054;51.978;4.498;2023-11-21T06:04:25;101409.81;;;8.36;100.00
69784;BME280;57054;51.978;4.498;2023-11-21T06:06:51;101418.53;;;8.35;100.00
69784;BME280;57054;51.978;4.498;2023-11-21T06:09:18;101419.44;;;8.34;100.00
69784;BME280;57054;51.978;4.498;2023-11-21T06:11:43;101425.47;;;8.36;100.00
69784;BME280;57054;51.978;4.498;2023-11-21T06:14:08;101420.22;;;8.37;100.00
69784;BME280;57054;51.978;4.498;2023-11-21T06:16:34;101426.25;;;8.39;100.00
69784;BME280;57054;51.978;4.498;2023-11-21T06:19:00;101435.78;;;8.42;100.00
69784;BME280;57054;51.978;4.498;2023-11-21T06:21:26;101435.75;;;8.43;100.00
69784;BME280;57054;51.978;4.498;2023-11-21T06:23:51;101436.59;;;8.45;100.00
69784;BME280;57054;51.978;4.498;2023-11-21T06:26:18;101438.28;;;8.48;100.00
69784;BME280;57054;51.978;4.498;2023-11-21T06:28:44;101434.78;;;8.49;100.00
69784;BME280;57054;51.978;4.498;2023-11-21T06:31:09;101434.72;;;8.52;100.00
69784;BME280;57054;51.978;4.498;2023-11-21T06:33:36;101438.16;;;8.53;100.00
69784;BME280;57054;51.978;4.498;2023-11-21T06:36:01;101454.75;;;8.52;100.00
69784;BME280;57054;51.978;4.498;2023-11-21T06:38:31;101460.88;;;8.49;100.00
69784;BME280;57054;51.978;4.498;2023-11-21T06:40:57;101457.41;;;8.49;100.00
69784;BME280;57054;51.978;4.498;2023-11-21T06:43:23;101453.03;;;8.49;100.00
69784;BME280;57054;51.978;4.498;2023-11-21T06:45:49;101459.16;;;8.48;100.00
69784;BME280;57054;51.978;4.498;2023-11-21T06:48:14;101458.28;;;8.48;100.00
69784;BME280;57054;51.978;4.498;2023-11-21T06:50:40;101469.63;;;8.48;100.00
69784;BME280;57054;51.978;4.498;2023-11-21T06:53:05;101475.75;;;8.45;100.00
69784;BME280;57054;51.978;4.498;2023-11-21T06:55:32;101474.94;;;8.42;100.00
69784;BME280;57054;51.978;4.498;2023-11-21T06:57:58;101486.25;;;8.41;100.00
69784;BME280;57054;51.978;4.498;2023-11-21T07:00:25;101488.94;;;8.38;100.00
69784;BME280;57054;51.978;4.498;2023-11-21T07:02:50;101491.56;;;8.36;100.00
69784;BME280;57054;51.978;4.498;2023-11-21T07:05:16;101493.34;;;8.34;100.00
69784;BME280;57054;51.978;4.498;2023-11-21T07:07:45;101495.13;;;8.34;100.00
69784;BME280;57054;51.978;4.498;2023-11-21T07:10:11;101509.06;;;8.31;100.00
69784;BME280;57054;51.978;4.498;2023-11-21T07:12:36;101503.81;;;8.33;100.00
69784;BME280;57054;51.978;4.498;2023-11-21T07:15:03;101500.31;;;8.35;100.00
69784;BME280;57054;51.978;4.498;2023-11-21T07:17:30;101502.94;;;8.34;100.00
69784;BME280;57054;51.978;4.498;2023-11-21T07:19:56;101519.38;;;8.39;100.00
69784;BME280;57054;51.978;4.498;2023-11-21T07:22:22;101521.88;;;8.45;100.00
69784;BME280;57054;51.978;4.498;2023-11-21T07:24:50;101527.91;;;8.49;100.00
69784;BME280;57054;51.978;4.498;2023-11-21T07:27:19;101537.47;;;8.50;100.00
69784;BME280;57054;51.978;4.498;2023-11-21T07:29:44;101536.53;;;8.52;100.00
69784;BME280;57054;51.978;4.498;2023-11-21T07:32:10;101543.41;;;8.55;100.00
69784;BME280;57054;51.978;4.498;2023-11-21T07:34:36;101547.72;;;8.57;100.00
69784;BME280;57054;51.978;4.498;2023-11-21T07:37:02;101548.53;;;8.61;100.00
69784;BME280;57054;51.978;4.498;2023-11-21T07:39:28;101545.81;;;8.65;100.00
69784;BME280;57054;51.978;4.498;2023-11-21T07:41:53;101555.38;;;8.67;100.00
69784;BME280;57054;51.978;4.498;2023-11-21T07:44:19;101564.00;;;8.70;100.00
69784;BME280;57054;51.978;4.498;2023-11-21T07:46:45;101557.88;;;8.71;100.00
69784;BME280;57054;51.978;4.498;2023-11-21T07:49:11;101570.03;;;8.74;100.00
69784;BME280;57054;51.978;4.498;2023-11-21T07:51:37;101569.06;;;8.76;100.00
69784;BME280;57054;51.978;4.498;2023-11-21T07:54:02;101574.28;;;8.78;100.00
69784;BME280;57054;51.978;4.498;2023-11-21T07:56:28;101578.63;;;8.79;100.00
69784;BME280;57054;51.978;4.498;2023-11-21T07:58:53;101576.84;;;8.79;100.00
69784;BME280;57054;51.978;4.498;2023-11-21T08:01:19;101580.25;;;8.83;100.00
69784;BME280;57054;51.978;4.498;2023-11-21T08:03:44;101590.59;;;8.88;100.00
69784;BME280;57054;51.978;4.498;2023-11-21T08:06:10;101594.94;;;8.89;100.00
69784;BME280;57054;51.978;4.498;2023-11-21T08:08:35;101603.63;;;8.89;100.00
69784;BME280;57054;51.978;4.498;2023-11-21T08:11:01;101598.34;;;8.92;100.00
69784;BME280;57054;51.978;4.498;2023-11-21T08:13:28;101600.91;;;8.95;100.00
69784;BME280;57054;51.978;4.498;2023-11-21T08:15:54;101607.84;;;8.96;100.00
69784;BME280;57054;51.978;4.498;2023-11-21T08:18:21;101620.91;;;8.96;100.00
69784;BME280;57054;51.978;4.498;2023-11-21T08:20:47;101620.88;;;8.98;100.00
69784;BME280;57054;51.978;4.498;2023-11-21T08:23:16;101612.16;;;8.99;100.00
69784;BME280;57054;51.978;4.498;2023-11-21T08:25:43;101620.75;;;9.04;100.00
69784;BME280;57054;51.978;4.498;2023-11-21T08:28:09;101619.88;;;9.03;100.00
69784;BME280;57054;51.978;4.498;2023-11-21T08:30:35;101618.97;;;9.06;100.00
69784;BME280;57054;51.978;4.498;2023-11-21T08:33:00;101612.78;;;9.09;100.00
69784;BME280;57054;51.978;4.498;2023-11-21T08:35:26;101611.91;;;9.10;100.00
69784;BME280;57054;51.978;4.498;2023-11-21T08:37:52;101622.31;;;9.11;100.00
69784;BME280;57054;51.978;4.498;2023-11-21T08:40:20;101624.00;;;9.14;100.00
69784;BME280;57054;51.978;4.498;2023-11-21T08:42:47;101620.53;;;9.13;100.00
69784;BME280;57054;51.978;4.498;2023-11-21T08:45:15;101617.00;;;9.16;100.00
69784;BME280;57054;51.978;4.498;2023-11-21T08:47:42;101619.53;;;9.19;100.00
69784;BME280;57054;51.978;4.498;2023-11-21T08:50:09;101612.50;;;9.22;100.00
69784;BME280;57054;51.978;4.498;2023-11-21T08:52:35;101625.41;;;9.29;100.00
69784;BME280;57054;51.978;4.498;2023-11-21T08:55:02;101623.63;;;9.31;100.00
69784;BME280;57054;51.978;4.498;2023-11-21T08:57:36;101620.97;;;9.32;100.00
69784;BME280;57054;51.978;4.498;2023-11-21T09:00:05;101632.28;;;9.33;100.00
69784;BME280;57054;51.978;4.498;2023-11-21T09:02:35;101643.63;;;9.33;100.00
69784;BME280;57054;51.978;4.498;2023-11-21T09:05:02;101651.41;;;9.35;100.00
69784;BME280;57054;51.978;4.498;2023-11-21T09:07:28;101650.53;;;9.36;100.00
69784;BME280;57054;51.978;4.498;2023-11-21T09:09:54;101659.25;;;9.35;100.00
69784;BME280;57054;51.978;4.498;2023-11-21T09:12:20;101673.09;;;9.38;100.00
69784;BME280;57054;51.978;4.498;2023-11-21T09:14:46;101675.78;;;9.37;100.00
69784;BME280;57054;51.978;4.498;2023-11-21T09:17:11;101667.88;;;9.38;100.00
69784;BME280;57054;51.978;4.498;2023-11-21T09:19:37;101668.75;;;9.39;100.00
69784;BME280;57054;51.978;4.498;2023-11-21T09:22:03;101677.50;;;9.38;100.00
69784;BME280;57054;51.978;4.498;2023-11-21T09:24:33;101680.97;;;9.38;100.00
69784;BME280;57054;51.978;4.498;2023-11-21T09:26:59;101683.50;;;9.41;100.00
69784;BME280;57054;51.978;4.498;2023-11-21T09:29:26;101687.88;;;9.41;100.00
69784;BME280;57054;51.978;4.498;2023-11-21T09:31:51;101703.53;;;9.43;100.00
69784;BME280;57054;51.978;4.498;2023-11-21T09:34:17;101693.13;;;9.41;100.00
69784;BME280;57054;51.978;4.498;2023-11-21T09:36:46;101703.56;;;9.41;100.00
69784;BME280;57054;51.978;4.498;2023-11-21T09:39:11;101703.56;;;9.41;100.00
69784;BME280;57054;51.978;4.498;2023-11-21T09:41:52;101710.50;;;9.42;100.00
69784;BME280;57054;51.978;4.498;2023-11-21T09:44:46;101716.63;;;9.43;100.00
69784;BME280;57054;51.978;4.498;2023-11-21T09:47:14;101724.47;;;9.43;100.00
69784;BME280;57054;51.978;4.498;2023-11-21T09:49:46;101728.78;;;9.44;100.00
69784;BME280;57054;51.978;4.498;2023-11-21T09:52:22;101739.25;;;9.44;100.00
69784;BME280;57054;51.978;4.498;2023-11-21T09:54:52;101736.59;;;9.45;100.00
69784;BME280;57054;51.978;4.498;2023-11-21T09:57:20;101747.03;;;9.47;100.00
69784;BME280;57054;51.978;4.498;2023-11-21T09:59:46;101758.38;;;9.46;100.00
69784;BME280;57054;51.978;4.498;2023-11-21T10:02:16;101763.66;;;9.44;100.00
69784;BME280;57054;51.978;4.498;2023-11-21T10:04:44;101762.78;;;9.44;100.00
69784;BME280;57054;51.978;4.498;2023-11-21T10:07:11;101769.72;;;9.46;100.00
69784;BME280;57054;51.978;4.498;2023-11-21T10:09:38;101774.06;;;9.46;100.00
69784;BME280;57054;51.978;4.498;2023-11-21T10:12:05;101771.44;;;9.46;100.00
69784;BME280;57054;51.978;4.498;2023-11-21T10:14:32;101781.88;;;9.47;100.00
69784;BME280;57054;51.978;4.498;2023-11-21T10:16:58;101779.25;;;9.47;100.00
69784;BME280;57054;51.978;4.498;2023-11-21T10:19:23;101781.81;;;9.50;100.00
69784;BME280;57054;51.978;4.498;2023-11-21T10:21:50;101787.94;;;9.48;100.00
69784;BME280;57054;51.978;4.498;2023-11-21T10:24:16;101797.53;;;9.49;100.00
69784;BME280;57054;51.978;4.498;2023-11-21T10:26:43;101800.16;;;9.49;100.00
69784;BME280;57054;51.978;4.498;2023-11-21T10:29:14;101802.72;;;9.50;100.00
69784;BME280;57054;51.978;4.498;2023-11-21T10:31:42;101805.41;;;9.47;100.00
69784;BME280;57054;51.978;4.498;2023-11-21T10:34:18;101809.75;;;9.48;100.00
69784;BME280;57054;51.978;4.498;2023-11-21T10:36:44;101814.03;;;9.51;100.00
69784;BME280;57054;51.978;4.498;2023-11-21T10:39:13;101819.28;;;9.51;100.00
69784;BME280;57054;51.978;4.498;2023-11-21T10:41:44;101829.84;;;9.46;100.00
69784;BME280;57054;51.978;4.498;2023-11-21T10:44:10;101835.91;;;9.48;100.00
69784;BME280;57054;51.978;4.498;2023-11-21T10:46:36;101833.28;;;9.48;100.00
69784;BME280;57054;51.978;4.498;2023-11-21T10:49:02;101831.56;;;9.46;100.00
69784;BME280;57054;51.978;4.498;2023-11-21T10:51:27;101838.59;;;9.44;100.00
69784;BME280;57054;51.978;4.498;2023-11-21T10:53:53;101846.41;;;9.45;100.00
69784;BME280;57054;51.978;4.498;2023-11-21T10:56:21;101840.31;;;9.45;100.00
69784;BME280;57054;51.978;4.498;2023-11-21T10:58:48;101849.03;;;9.45;100.00
69784;BME280;57054;51.978;4.498;2023-11-21T11:01:17;101849.06;;;9.44;100.00
69784;BME280;57054;51.978;4.498;2023-11-21T11:03:43;101841.22;;;9.42;100.00
69784;BME280;57054;51.978;4.498;2023-11-21T11:06:09;101848.25;;;9.40;100.00
69784;BME280;57054;51.978;4.498;2023-11-21T11:08:37;101840.50;;;9.37;100.00
69784;BME280;57054;51.978;4.498;2023-11-21T11:11:07;101850.09;;;9.35;100.00
69784;BME280;57054;51.978;4.498;2023-11-21T11:13:33;101848.34;;;9.35;100.00
69784;BME280;57054;51.978;4.498;2023-11-21T11:15:59;101850.16;;;9.33;100.00
69784;BME280;57054;51.978;4.498;2023-11-21T11:18:29;101849.25;;;9.33;100.00
69784;BME280;57054;51.978;4.498;2023-11-21T11:21:00;101851.03;;;9.32;100.00
69784;BME280;57054;51.978;4.498;2023-11-21T11:35:07;101853.69;;;9.29;100.00
69784;BME280;57054;51.978;4.498;2023-11-21T11:37:35;101861.59;;;9.26;100.00
69784;BME280;57054;51.978;4.498;2023-11-21T11:40:06;101851.19;;;9.25;100.00
69784;BME280;57054;51.978;4.498;2023-11-21T11:42:32;101858.16;;;9.24;100.00
69784;BME280;57054;51.978;4.498;2023-11-21T11:44:57;101860.59;;;9.33;100.00
69784;BME280;57054;51.978;4.498;2023-11-21T11:47:27;101860.63;;;9.32;100.00
69784;BME280;57054;51.978;4.498;2023-11-21T11:50:03;101852.75;;;9.33;100.00
69784;BME280;57054;51.978;4.498;2023-11-21T11:55:02;101869.19;;;9.38;100.00
69784;BME280;57054;51.978;4.498;2023-11-21T11:57:34;101873.59;;;9.36;100.00
69784;BME280;57054;51.978;4.498;2023-11-21T12:02:41;101876.09;;;9.43;100.00
69784;BME280;57054;51.978;4.498;2023-11-21T12:05:09;101875.97;;;9.49;100.00
69784;BME280;57054;51.978;4.498;2023-11-21T12:07:56;101889.09;;;9.46;100.00
69784;BME280;57054;51.978;4.498;2023-11-21T12:10:24;101887.31;;;9.48;100.00
69784;BME280;57054;51.978;4.498;2023-11-21T12:13:01;101900.34;;;9.51;100.00
69784;BME280;57054;51.978;4.498;2023-11-21T12:15:27;101902.13;;;9.49;100.00
69784;BME280;57054;51.978;4.498;2023-11-21T12:17:57;101901.28;;;9.47;100.00
69784;BME280;57054;51.978;4.498;2023-11-21T12:20:24;101907.47;;;9.44;100.00
69784;BME280;57054;51.978;4.498;2023-11-21T12:22:51;101901.34;;;9.44;100.00
69784;BME280;57054;51.978;4.498;2023-11-21T12:25:19;101917.13;;;9.40;100.00
69784;BME280;57054;51.978;4.498;2023-11-21T12:27:49;101911.88;;;9.40;100.00
69784;BME280;57054;51.978;4.498;2023-11-21T12:30:16;101914.50;;;9.40;100.00
69784;BME280;57054;51.978;4.498;2023-11-21T12:32:43;101916.31;;;9.37;100.00
69784;BME280;57054;51.978;4.498;2023-11-21T12:35:09;101914.53;;;9.39;100.00
69784;BME280;57054;51.978;4.498;2023-11-21T12:37:40;101926.66;;;9.41;100.00
69784;BME280;57054;51.978;4.498;2023-11-21T12:40:09;101921.41;;;9.43;100.00
69784;BME280;57054;51.978;4.498;2023-11-21T12:42:38;101928.22;;;9.52;100.00
69784;BME280;57054;51.978;4.498;2023-11-21T12:47:43;101923.09;;;9.46;100.00
69784;BME280;57054;51.978;4.498;2023-11-21T12:50:09;101929.06;;;9.54;100.00
69784;BME280;57054;51.978;4.498;2023-11-21T12:52:44;101935.25;;;9.48;100.00
69784;BME280;57054;51.978;4.498;2023-11-21T12:55:20;101937.94;;;9.45;100.00
69784;BME280;57054;51.978;4.498;2023-11-21T12:57:54;101935.25;;;9.48;100.00
69784;BME280;57054;51.978;4.498;2023-11-21T13:00:29;101944.06;;;9.44;100.00
69784;BME280;57054;51.978;4.498;2023-11-21T13:02:57;101947.56;;;9.43;100.00
69784;BME280;57054;51.978;4.498;2023-11-21T13:05:35;101950.16;;;9.45;100.00
69784;BME280;57054;51.978;4.498;2023-11-21T13:08:04;101957.16;;;9.43;100.00
69784;BME280;57054;51.978;4.498;2023-11-21T13:10:32;101949.31;;;9.43;100.00